< < Back
Terminal Aerodrome Forecast


Current Version              Previous Versions:   1  2  3  4  5  6  7  8  9  

Terminal Aerodrome Forecast

346
FTUS42 KTAE 302300
TAFDHN
TAF
KDHN 302320Z 3100/3124 01004KT P6SM SKC
     FM311500 08006KT P6SM SKC=



Latest METAR

651
SAUS70 KWBC 311100 RRE
MTRDHN
METAR KDHN 311053Z AUTO 02005KT 10SM CLR 01/M04 A3036 RMK AO2 SLP280
T00061039 FZRANO


USA.gov is the U.S. government's official web portal to all federal, state and local government web resources and services.